sensor_id;sensor_type;location;lat;lon;timestamp;P1;durP1;ratioP1;P2;durP2;ratioP2
10550;SDS011;5324;50.684;3.862;2022-10-16T00:01:05;1.23;;;0.90;;
10550;SDS011;5324;50.684;3.862;2022-10-16T00:03:31;0.80;;;0.80;;
10550;SDS011;5324;50.684;3.862;2022-10-16T00:05:58;1.27;;;1.17;;
10550;SDS011;5324;50.684;3.862;2022-10-16T00:08:24;1.57;;;1.00;;
10550;SDS011;5324;50.684;3.862;2022-10-16T00:10:50;0.90;;;0.90;;
10550;SDS011;5324;50.684;3.862;2022-10-16T00:13:16;1.20;;;1.10;;
10550;SDS011;5324;50.684;3.862;2022-10-16T00:15:44;1.17;;;1.17;;
10550;SDS011;5324;50.684;3.862;2022-10-16T00:18:11;1.93;;;1.13;;
10550;SDS011;5324;50.684;3.862;2022-10-16T00:20:37;1.07;;;1.00;;
10550;SDS011;5324;50.684;3.862;2022-10-16T00:23:03;2.07;;;1.40;;
10550;SDS011;5324;50.684;3.862;2022-10-16T00:25:30;0.80;;;0.80;;
10550;SDS011;5324;50.684;3.862;2022-10-16T00:27:57;1.10;;;1.00;;
10550;SDS011;5324;50.684;3.862;2022-10-16T00:30:23;1.63;;;1.20;;
10550;SDS011;5324;50.684;3.862;2022-10-16T00:32:51;1.17;;;1.10;;
10550;SDS011;5324;50.684;3.862;2022-10-16T00:35:17;2.73;;;1.37;;
10550;SDS011;5324;50.684;3.862;2022-10-16T00:37:43;1.50;;;1.40;;
10550;SDS011;5324;50.684;3.862;2022-10-16T00:40:10;1.40;;;1.30;;
10550;SDS011;5324;50.684;3.862;2022-10-16T00:42:36;2.63;;;1.30;;
10550;SDS011;5324;50.684;3.862;2022-10-16T00:45:02;1.97;;;1.33;;
10550;SDS011;5324;50.684;3.862;2022-10-16T00:49:59;1.60;;;1.20;;
10550;SDS011;5324;50.684;3.862;2022-10-16T00:52:26;1.90;;;1.27;;
10550;SDS011;5324;50.684;3.862;2022-10-16T00:54:52;1.37;;;1.27;;
10550;SDS011;5324;50.684;3.862;2022-10-16T00:57:19;1.23;;;1.13;;
10550;SDS011;5324;50.684;3.862;2022-10-16T00:59:45;1.47;;;1.37;;
10550;SDS011;5324;50.684;3.862;2022-10-16T01:02:12;1.30;;;1.20;;
10550;SDS011;5324;50.684;3.862;2022-10-16T01:04:42;1.40;;;1.30;;
10550;SDS011;5324;50.684;3.862;2022-10-16T01:07:11;1.40;;;1.30;;
10550;SDS011;5324;50.684;3.862;2022-10-16T01:09:51;1.50;;;1.40;;
10550;SDS011;5324;50.684;3.862;2022-10-16T01:14:55;1.40;;;1.30;;
10550;SDS011;5324;50.684;3.862;2022-10-16T01:17:34;1.40;;;1.30;;
10550;SDS011;5324;50.684;3.862;2022-10-16T01:23:15;1.30;;;1.20;;
10550;SDS011;5324;50.684;3.862;2022-10-16T01:25:30;1.27;;;1.17;;
10550;SDS011;5324;50.684;3.862;2022-10-16T01:28:01;1.30;;;1.20;;
10550;SDS011;5324;50.684;3.862;2022-10-16T01:30:30;2.23;;;1.30;;
10550;SDS011;5324;50.684;3.862;2022-10-16T01:33:04;1.70;;;1.30;;
10550;SDS011;5324;50.684;3.862;2022-10-16T01:35:32;1.03;;;1.03;;
10550;SDS011;5324;50.684;3.862;2022-10-16T01:40:25;1.27;;;1.17;;
10550;SDS011;5324;50.684;3.862;2022-10-16T01:42:53;1.40;;;1.03;;
10550;SDS011;5324;50.684;3.862;2022-10-16T01:45:21;1.10;;;1.10;;
10550;SDS011;5324;50.684;3.862;2022-10-16T01:47:48;1.53;;;1.43;;
10550;SDS011;5324;50.684;3.862;2022-10-16T01:50:15;1.03;;;1.03;;
10550;SDS011;5324;50.684;3.862;2022-10-16T01:52:43;1.67;;;1.30;;
10550;SDS011;5324;50.684;3.862;2022-10-16T01:55:11;1.33;;;1.23;;
10550;SDS011;5324;50.684;3.862;2022-10-16T01:57:38;1.63;;;1.50;;
10550;SDS011;5324;50.684;3.862;2022-10-16T02:00:08;1.57;;;1.47;;
10550;SDS011;5324;50.684;3.862;2022-10-16T02:02:35;1.43;;;1.33;;
10550;SDS011;5324;50.684;3.862;2022-10-16T02:05:03;2.37;;;1.57;;
10550;SDS011;5324;50.684;3.862;2022-10-16T02:07:30;1.73;;;1.40;;
10550;SDS011;5324;50.684;3.862;2022-10-16T02:09:56;2.57;;;1.80;;
10550;SDS011;5324;50.684;3.862;2022-10-16T02:12:32;1.80;;;1.50;;
10550;SDS011;5324;50.684;3.862;2022-10-16T02:14:59;1.50;;;1.40;;
10550;SDS011;5324;50.684;3.862;2022-10-16T02:17:26;1.50;;;1.40;;
10550;SDS011;5324;50.684;3.862;2022-10-16T02:19:52;2.20;;;1.10;;
10550;SDS011;5324;50.684;3.862;2022-10-16T02:25:05;1.30;;;1.20;;
10550;SDS011;5324;50.684;3.862;2022-10-16T02:30:07;2.10;;;1.90;;
10550;SDS011;5324;50.684;3.862;2022-10-16T02:32:34;2.30;;;1.30;;
10550;SDS011;5324;50.684;3.862;2022-10-16T02:35:01;2.27;;;1.70;;
10550;SDS011;5324;50.684;3.862;2022-10-16T02:37:28;1.50;;;1.40;;
10550;SDS011;5324;50.684;3.862;2022-10-16T02:39:55;1.73;;;1.50;;
10550;SDS011;5324;50.684;3.862;2022-10-16T02:42:26;1.87;;;1.33;;
10550;SDS011;5324;50.684;3.862;2022-10-16T02:44:53;1.40;;;1.30;;
10550;SDS011;5324;50.684;3.862;2022-10-16T02:47:18;1.77;;;1.60;;
10550;SDS011;5324;50.684;3.862;2022-10-16T02:49:45;1.50;;;1.20;;
10550;SDS011;5324;50.684;3.862;2022-10-16T02:52:11;2.40;;;1.93;;
10550;SDS011;5324;50.684;3.862;2022-10-16T02:54:37;1.90;;;1.70;;
10550;SDS011;5324;50.684;3.862;2022-10-16T02:57:03;2.90;;;1.70;;
10550;SDS011;5324;50.684;3.862;2022-10-16T02:59:30;1.57;;;1.47;;
10550;SDS011;5324;50.684;3.862;2022-10-16T03:01:55;2.53;;;1.90;;
10550;SDS011;5324;50.684;3.862;2022-10-16T03:04:22;2.60;;;1.80;;
10550;SDS011;5324;50.684;3.862;2022-10-16T03:06:48;1.50;;;1.33;;
10550;SDS011;5324;50.684;3.862;2022-10-16T03:09:14;2.07;;;1.90;;
10550;SDS011;5324;50.684;3.862;2022-10-16T03:11:40;2.00;;;1.60;;
10550;SDS011;5324;50.684;3.862;2022-10-16T03:14:06;1.70;;;1.60;;
10550;SDS011;5324;50.684;3.862;2022-10-16T03:16:32;1.57;;;1.40;;
10550;SDS011;5324;50.684;3.862;2022-10-16T03:18:58;2.60;;;1.90;;
10550;SDS011;5324;50.684;3.862;2022-10-16T03:21:24;1.53;;;1.30;;
10550;SDS011;5324;50.684;3.862;2022-10-16T03:23:50;1.60;;;1.50;;
10550;SDS011;5324;50.684;3.862;2022-10-16T03:26:16;1.87;;;1.77;;
10550;SDS011;5324;50.684;3.862;2022-10-16T03:28:42;1.80;;;1.67;;
10550;SDS011;5324;50.684;3.862;2022-10-16T03:31:08;1.50;;;1.40;;
10550;SDS011;5324;50.684;3.862;2022-10-16T03:33:34;4.23;;;1.70;;
10550;SDS011;5324;50.684;3.862;2022-10-16T03:36:00;1.50;;;1.40;;
10550;SDS011;5324;50.684;3.862;2022-10-16T03:38:26;1.90;;;1.80;;
10550;SDS011;5324;50.684;3.862;2022-10-16T03:40:52;2.27;;;1.93;;
10550;SDS011;5324;50.684;3.862;2022-10-16T03:43:18;2.07;;;1.70;;
10550;SDS011;5324;50.684;3.862;2022-10-16T03:45:44;2.33;;;1.97;;
10550;SDS011;5324;50.684;3.862;2022-10-16T03:48:10;1.53;;;1.43;;
10550;SDS011;5324;50.684;3.862;2022-10-16T03:50:36;1.70;;;1.50;;
10550;SDS011;5324;50.684;3.862;2022-10-16T03:53:03;1.80;;;1.70;;
10550;SDS011;5324;50.684;3.862;2022-10-16T03:55:29;1.83;;;1.73;;
10550;SDS011;5324;50.684;3.862;2022-10-16T03:57:55;1.70;;;1.60;;
10550;SDS011;5324;50.684;3.862;2022-10-16T04:00:21;1.83;;;1.60;;
10550;SDS011;5324;50.684;3.862;2022-10-16T04:02:47;1.70;;;1.60;;
10550;SDS011;5324;50.684;3.862;2022-10-16T04:05:13;1.97;;;1.87;;
10550;SDS011;5324;50.684;3.862;2022-10-16T04:07:39;2.13;;;1.40;;
10550;SDS011;5324;50.684;3.862;2022-10-16T04:10:05;1.80;;;1.67;;
10550;SDS011;5324;50.684;3.862;2022-10-16T04:12:31;2.10;;;1.60;;
10550;SDS011;5324;50.684;3.862;2022-10-16T04:14:57;2.13;;;1.63;;
10550;SDS011;5324;50.684;3.862;2022-10-16T04:17:23;1.60;;;1.40;;
10550;SDS011;5324;50.684;3.862;2022-10-16T04:19:49;1.53;;;1.43;;
10550;SDS011;5324;50.684;3.862;2022-10-16T04:22:15;2.20;;;1.60;;
10550;SDS011;5324;50.684;3.862;2022-10-16T04:24:41;1.33;;;1.23;;
10550;SDS011;5324;50.684;3.862;2022-10-16T04:27:07;1.63;;;1.53;;
10550;SDS011;5324;50.684;3.862;2022-10-16T04:29:33;2.07;;;1.93;;
10550;SDS011;5324;50.684;3.862;2022-10-16T04:31:59;3.13;;;1.80;;
10550;SDS011;5324;50.684;3.862;2022-10-16T04:34:25;1.63;;;1.40;;
10550;SDS011;5324;50.684;3.862;2022-10-16T04:36:51;2.07;;;1.80;;
10550;SDS011;5324;50.684;3.862;2022-10-16T04:39:17;1.53;;;1.43;;
10550;SDS011;5324;50.684;3.862;2022-10-16T04:41:43;1.97;;;1.70;;
10550;SDS011;5324;50.684;3.862;2022-10-16T04:44:09;1.80;;;1.70;;
10550;SDS011;5324;50.684;3.862;2022-10-16T04:46:35;1.73;;;1.63;;
10550;SDS011;5324;50.684;3.862;2022-10-16T04:49:01;2.70;;;1.80;;
10550;SDS011;5324;50.684;3.862;2022-10-16T04:51:27;1.80;;;1.70;;
10550;SDS011;5324;50.684;3.862;2022-10-16T04:53:53;1.70;;;1.60;;
10550;SDS011;5324;50.684;3.862;2022-10-16T04:56:20;1.53;;;1.43;;
10550;SDS011;5324;50.684;3.862;2022-10-16T04:58:46;1.60;;;1.50;;
10550;SDS011;5324;50.684;3.862;2022-10-16T05:01:12;1.80;;;1.70;;
10550;SDS011;5324;50.684;3.862;2022-10-16T05:03:38;1.80;;;1.70;;
10550;SDS011;5324;50.684;3.862;2022-10-16T05:06:05;1.70;;;1.60;;
10550;SDS011;5324;50.684;3.862;2022-10-16T05:08:31;1.80;;;1.70;;
10550;SDS011;5324;50.684;3.862;2022-10-16T05:10:57;1.80;;;1.70;;
10550;SDS011;5324;50.684;3.862;2022-10-16T05:13:23;2.37;;;1.80;;
10550;SDS011;5324;50.684;3.862;2022-10-16T05:15:49;1.87;;;1.70;;
10550;SDS011;5324;50.684;3.862;2022-10-16T05:18:15;1.80;;;1.70;;
10550;SDS011;5324;50.684;3.862;2022-10-16T05:20:41;1.77;;;1.67;;
10550;SDS011;5324;50.684;3.862;2022-10-16T05:23:07;2.33;;;2.10;;
10550;SDS011;5324;50.684;3.862;2022-10-16T05:25:35;3.13;;;1.93;;
10550;SDS011;5324;50.684;3.862;2022-10-16T05:28:01;2.40;;;2.20;;
10550;SDS011;5324;50.684;3.862;2022-10-16T05:30:27;2.53;;;1.93;;
10550;SDS011;5324;50.684;3.862;2022-10-16T05:32:53;1.67;;;1.57;;
10550;SDS011;5324;50.684;3.862;2022-10-16T05:35:19;2.07;;;1.87;;
10550;SDS011;5324;50.684;3.862;2022-10-16T05:37:46;2.10;;;1.90;;
10550;SDS011;5324;50.684;3.862;2022-10-16T05:40:12;1.90;;;1.80;;
10550;SDS011;5324;50.684;3.862;2022-10-16T05:42:39;1.87;;;1.77;;
10550;SDS011;5324;50.684;3.862;2022-10-16T05:45:05;2.70;;;2.13;;
10550;SDS011;5324;50.684;3.862;2022-10-16T05:47:32;1.90;;;1.70;;
10550;SDS011;5324;50.684;3.862;2022-10-16T05:49:58;1.53;;;1.40;;
10550;SDS011;5324;50.684;3.862;2022-10-16T05:52:24;1.63;;;1.53;;
10550;SDS011;5324;50.684;3.862;2022-10-16T05:54:50;2.07;;;1.80;;
10550;SDS011;5324;50.684;3.862;2022-10-16T05:57:16;2.70;;;1.67;;
10550;SDS011;5324;50.684;3.862;2022-10-16T05:59:42;1.77;;;1.63;;
10550;SDS011;5324;50.684;3.862;2022-10-16T06:02:10;1.60;;;1.50;;
10550;SDS011;5324;50.684;3.862;2022-10-16T06:04:37;1.57;;;1.47;;
10550;SDS011;5324;50.684;3.862;2022-10-16T06:07:03;1.60;;;1.50;;
10550;SDS011;5324;50.684;3.862;2022-10-16T06:09:29;2.50;;;1.73;;
10550;SDS011;5324;50.684;3.862;2022-10-16T06:11:55;2.30;;;2.00;;
10550;SDS011;5324;50.684;3.862;2022-10-16T06:14:21;2.80;;;1.53;;
10550;SDS011;5324;50.684;3.862;2022-10-16T06:16:47;1.87;;;1.77;;
10550;SDS011;5324;50.684;3.862;2022-10-16T06:19:13;2.23;;;1.37;;
10550;SDS011;5324;50.684;3.862;2022-10-16T06:21:41;1.60;;;1.50;;
10550;SDS011;5324;50.684;3.862;2022-10-16T06:24:07;2.20;;;1.77;;
10550;SDS011;5324;50.684;3.862;2022-10-16T06:26:33;1.93;;;1.83;;
10550;SDS011;5324;50.684;3.862;2022-10-16T06:28:59;2.20;;;2.00;;
10550;SDS011;5324;50.684;3.862;2022-10-16T06:31:26;1.60;;;1.50;;
10550;SDS011;5324;50.684;3.862;2022-10-16T06:33:55;2.57;;;1.70;;
10550;SDS011;5324;50.684;3.862;2022-10-16T06:36:21;1.63;;;1.53;;
10550;SDS011;5324;50.684;3.862;2022-10-16T06:38:47;4.93;;;2.00;;
10550;SDS011;5324;50.684;3.862;2022-10-16T06:41:18;2.10;;;1.67;;
10550;SDS011;5324;50.684;3.862;2022-10-16T06:43:44;1.60;;;1.50;;
10550;SDS011;5324;50.684;3.862;2022-10-16T06:46:10;2.13;;;2.00;;
10550;SDS011;5324;50.684;3.862;2022-10-16T06:48:37;1.60;;;1.50;;
10550;SDS011;5324;50.684;3.862;2022-10-16T06:51:08;2.20;;;1.73;;
10550;SDS011;5324;50.684;3.862;2022-10-16T06:53:35;2.77;;;1.70;;
10550;SDS011;5324;50.684;3.862;2022-10-16T06:58:33;1.40;;;1.30;;
10550;SDS011;5324;50.684;3.862;2022-10-16T07:00:59;1.63;;;1.53;;
10550;SDS011;5324;50.684;3.862;2022-10-16T07:03:25;1.90;;;1.80;;
10550;SDS011;5324;50.684;3.862;2022-10-16T07:05:51;1.67;;;1.33;;
10550;SDS011;5324;50.684;3.862;2022-10-16T07:08:17;1.57;;;1.47;;
10550;SDS011;5324;50.684;3.862;2022-10-16T07:10:43;1.87;;;1.70;;
10550;SDS011;5324;50.684;3.862;2022-10-16T07:13:09;1.83;;;1.60;;
10550;SDS011;5324;50.684;3.862;2022-10-16T07:15:38;1.97;;;1.87;;
10550;SDS011;5324;50.684;3.862;2022-10-16T07:18:04;1.87;;;1.67;;
10550;SDS011;5324;50.684;3.862;2022-10-16T07:20:30;2.70;;;2.37;;
10550;SDS011;5324;50.684;3.862;2022-10-16T07:22:56;3.13;;;2.03;;
10550;SDS011;5324;50.684;3.862;2022-10-16T07:25:22;1.77;;;1.67;;
10550;SDS011;5324;50.684;3.862;2022-10-16T07:27:48;3.17;;;2.87;;
10550;SDS011;5324;50.684;3.862;2022-10-16T07:30:14;2.23;;;1.60;;
10550;SDS011;5324;50.684;3.862;2022-10-16T07:32:40;2.83;;;2.00;;
10550;SDS011;5324;50.684;3.862;2022-10-16T07:35:06;2.13;;;1.90;;
10550;SDS011;5324;50.684;3.862;2022-10-16T07:37:33;2.20;;;2.00;;
10550;SDS011;5324;50.684;3.862;2022-10-16T07:39:59;1.80;;;1.70;;
10550;SDS011;5324;50.684;3.862;2022-10-16T07:42:25;3.17;;;2.10;;
10550;SDS011;5324;50.684;3.862;2022-10-16T07:44:51;2.27;;;1.80;;
10550;SDS011;5324;50.684;3.862;2022-10-16T07:47:17;2.63;;;2.10;;
10550;SDS011;5324;50.684;3.862;2022-10-16T07:49:43;2.13;;;1.77;;
10550;SDS011;5324;50.684;3.862;2022-10-16T07:52:09;1.93;;;1.70;;
10550;SDS011;5324;50.684;3.862;2022-10-16T07:54:35;2.47;;;1.70;;
10550;SDS011;5324;50.684;3.862;2022-10-16T07:57:01;2.10;;;1.70;;
10550;SDS011;5324;50.684;3.862;2022-10-16T07:59:27;2.57;;;1.73;;
10550;SDS011;5324;50.684;3.862;2022-10-16T08:01:53;1.63;;;1.53;;
10550;SDS011;5324;50.684;3.862;2022-10-16T08:04:19;2.33;;;2.13;;
10550;SDS011;5324;50.684;3.862;2022-10-16T08:06:45;2.17;;;1.70;;
10550;SDS011;5324;50.684;3.862;2022-10-16T08:09:11;1.70;;;1.60;;
10550;SDS011;5324;50.684;3.862;2022-10-16T08:11:37;1.63;;;1.53;;
10550;SDS011;5324;50.684;3.862;2022-10-16T08:14:03;2.57;;;1.67;;
10550;SDS011;5324;50.684;3.862;2022-10-16T08:16:29;1.40;;;1.30;;
10550;SDS011;5324;50.684;3.862;2022-10-16T08:18:55;2.13;;;1.80;;
10550;SDS011;5324;50.684;3.862;2022-10-16T08:21:21;1.60;;;1.50;;
10550;SDS011;5324;50.684;3.862;2022-10-16T08:23:50;2.47;;;1.23;;
10550;SDS011;5324;50.684;3.862;2022-10-16T08:26:16;1.77;;;1.67;;
10550;SDS011;5324;50.684;3.862;2022-10-16T08:28:44;1.67;;;1.50;;
10550;SDS011;5324;50.684;3.862;2022-10-16T08:31:11;2.83;;;2.13;;
10550;SDS011;5324;50.684;3.862;2022-10-16T08:33:37;3.83;;;1.83;;
10550;SDS011;5324;50.684;3.862;2022-10-16T08:36:04;3.10;;;2.13;;
10550;SDS011;5324;50.684;3.862;2022-10-16T08:38:31;2.97;;;1.80;;
10550;SDS011;5324;50.684;3.862;2022-10-16T08:41:02;1.77;;;1.50;;
10550;SDS011;5324;50.684;3.862;2022-10-16T08:43:42;2.10;;;1.63;;
10550;SDS011;5324;50.684;3.862;2022-10-16T08:46:19;1.83;;;1.10;;
10550;SDS011;5324;50.684;3.862;2022-10-16T08:48:48;1.97;;;1.30;;
10550;SDS011;5324;50.684;3.862;2022-10-16T08:51:19;1.60;;;1.50;;
10550;SDS011;5324;50.684;3.862;2022-10-16T08:53:49;1.57;;;1.30;;
10550;SDS011;5324;50.684;3.862;2022-10-16T08:56:15;1.20;;;1.10;;
10550;SDS011;5324;50.684;3.862;2022-10-16T08:58:43;3.70;;;1.73;;
10550;SDS011;5324;50.684;3.862;2022-10-16T09:01:11;2.70;;;1.63;;
10550;SDS011;5324;50.684;3.862;2022-10-16T09:09:10;3.67;;;1.60;;
10550;SDS011;5324;50.684;3.862;2022-10-16T09:16:39;3.20;;;1.80;;
10550;SDS011;5324;50.684;3.862;2022-10-16T09:21:51;2.67;;;1.50;;
10550;SDS011;5324;50.684;3.862;2022-10-16T09:24:19;2.00;;;1.40;;
10550;SDS011;5324;50.684;3.862;2022-10-16T09:26:46;1.33;;;1.23;;
10550;SDS011;5324;50.684;3.862;2022-10-16T09:29:12;3.13;;;1.50;;
10550;SDS011;5324;50.684;3.862;2022-10-16T09:31:38;3.07;;;1.37;;
10550;SDS011;5324;50.684;3.862;2022-10-16T09:34:05;2.40;;;1.40;;
10550;SDS011;5324;50.684;3.862;2022-10-16T09:36:39;4.03;;;1.30;;
10550;SDS011;5324;50.684;3.862;2022-10-16T09:39:07;1.70;;;1.60;;
10550;SDS011;5324;50.684;3.862;2022-10-16T09:41:37;2.80;;;1.67;;
10550;SDS011;5324;50.684;3.862;2022-10-16T09:44:03;1.43;;;1.20;;
10550;SDS011;5324;50.684;3.862;2022-10-16T09:46:32;2.90;;;1.30;;
10550;SDS011;5324;50.684;3.862;2022-10-16T09:48:59;2.30;;;1.43;;
10550;SDS011;5324;50.684;3.862;2022-10-16T09:51:27;1.67;;;1.30;;
10550;SDS011;5324;50.684;3.862;2022-10-16T09:53:54;2.10;;;1.57;;
10550;SDS011;5324;50.684;3.862;2022-10-16T09:56:22;1.13;;;1.07;;
10550;SDS011;5324;50.684;3.862;2022-10-16T09:58:53;1.10;;;1.00;;
10550;SDS011;5324;50.684;3.862;2022-10-16T10:01:19;1.77;;;1.37;;
10550;SDS011;5324;50.684;3.862;2022-10-16T10:03:46;1.27;;;1.17;;
10550;SDS011;5324;50.684;3.862;2022-10-16T10:06:21;1.37;;;1.20;;
10550;SDS011;5324;50.684;3.862;2022-10-16T10:08:58;2.63;;;1.27;;
10550;SDS011;5324;50.684;3.862;2022-10-16T10:11:43;2.07;;;1.20;;
10550;SDS011;5324;50.684;3.862;2022-10-16T10:16:42;3.97;;;1.20;;
10550;SDS011;5324;50.684;3.862;2022-10-16T10:19:19;2.60;;;1.20;;
10550;SDS011;5324;50.684;3.862;2022-10-16T10:21:46;1.77;;;1.27;;
10550;SDS011;5324;50.684;3.862;2022-10-16T10:24:12;2.30;;;1.00;;
10550;SDS011;5324;50.684;3.862;2022-10-16T10:26:39;1.40;;;1.20;;
10550;SDS011;5324;50.684;3.862;2022-10-16T10:36:59;2.60;;;1.25;;
10550;SDS011;5324;50.684;3.862;2022-10-16T10:39:35;2.25;;;1.48;;
10550;SDS011;5324;50.684;3.862;2022-10-16T10:42:05;2.53;;;1.17;;
10550;SDS011;5324;50.684;3.862;2022-10-16T10:49:51;2.00;;;1.10;;
10550;SDS011;5324;50.684;3.862;2022-10-16T10:55:02;1.40;;;1.30;;
10550;SDS011;5324;50.684;3.862;2022-10-16T10:57:46;1.92;;;1.20;;
10550;SDS011;5324;50.684;3.862;2022-10-16T11:00:21;2.60;;;1.50;;
10550;SDS011;5324;50.684;3.862;2022-10-16T11:05:29;1.23;;;1.13;;
10550;SDS011;5324;50.684;3.862;2022-10-16T11:08:00;1.50;;;1.10;;
10550;SDS011;5324;50.684;3.862;2022-10-16T11:10:30;1.23;;;1.13;;
10550;SDS011;5324;50.684;3.862;2022-10-16T11:15:57;1.40;;;1.02;;
10550;SDS011;5324;50.684;3.862;2022-10-16T11:20:57;1.48;;;1.00;;
10550;SDS011;5324;50.684;3.862;2022-10-16T11:26:26;1.23;;;1.00;;
10550;SDS011;5324;50.684;3.862;2022-10-16T11:28:54;1.23;;;1.10;;
10550;SDS011;5324;50.684;3.862;2022-10-16T11:31:40;1.02;;;0.93;;
10550;SDS011;5324;50.684;3.862;2022-10-16T11:36:47;1.10;;;1.00;;
10550;SDS011;5324;50.684;3.862;2022-10-16T11:41:44;1.17;;;1.00;;
10550;SDS011;5324;50.684;3.862;2022-10-16T11:47:08;1.83;;;1.30;;
10550;SDS011;5324;50.684;3.862;2022-10-16T11:49:36;1.15;;;1.02;;
10550;SDS011;5324;50.684;3.862;2022-10-16T11:57:21;1.73;;;1.27;;
10550;SDS011;5324;50.684;3.862;2022-10-16T11:59:50;1.40;;;1.25;;
10550;SDS011;5324;50.684;3.862;2022-10-16T12:04:51;0.85;;;0.85;;
10550;SDS011;5324;50.684;3.862;2022-10-16T12:07:24;1.00;;;1.00;;
10550;SDS011;5324;50.684;3.862;2022-10-16T12:09:53;2.03;;;1.50;;
10550;SDS011;5324;50.684;3.862;2022-10-16T12:12:25;2.17;;;1.20;;
10550;SDS011;5324;50.684;3.862;2022-10-16T12:17:36;1.83;;;1.00;;
10550;SDS011;5324;50.684;3.862;2022-10-16T12:22:54;2.38;;;1.00;;
10550;SDS011;5324;50.684;3.862;2022-10-16T12:27:53;2.40;;;1.23;;
10550;SDS011;5324;50.684;3.862;2022-10-16T12:30:21;1.33;;;0.90;;
10550;SDS011;5324;50.684;3.862;2022-10-16T12:32:55;2.90;;;1.10;;
10550;SDS011;5324;50.684;3.862;2022-10-16T12:35:26;1.70;;;1.17;;
10550;SDS011;5324;50.684;3.862;2022-10-16T12:37:53;1.48;;;1.20;;
10550;SDS011;5324;50.684;3.862;2022-10-16T12:42:51;1.23;;;1.05;;
10550;SDS011;5324;50.684;3.862;2022-10-16T12:45:31;1.02;;;0.95;;
10550;SDS011;5324;50.684;3.862;2022-10-16T12:47:58;1.10;;;0.90;;
10550;SDS011;5324;50.684;3.862;2022-10-16T12:52:53;1.00;;;0.90;;
10550;SDS011;5324;50.684;3.862;2022-10-16T12:55:20;1.40;;;1.05;;
10550;SDS011;5324;50.684;3.862;2022-10-16T12:57:54;4.20;;;1.55;;
10550;SDS011;5324;50.684;3.862;2022-10-16T13:10:40;1.17;;;1.15;;
10550;SDS011;5324;50.684;3.862;2022-10-16T13:13:15;0.90;;;0.90;;
10550;SDS011;5324;50.684;3.862;2022-10-16T13:15:56;1.30;;;0.95;;
10550;SDS011;5324;50.684;3.862;2022-10-16T13:18:29;0.90;;;0.90;;
10550;SDS011;5324;50.684;3.862;2022-10-16T13:21:04;1.67;;;1.27;;
10550;SDS011;5324;50.684;3.862;2022-10-16T13:23:37;1.77;;;1.00;;
10550;SDS011;5324;50.684;3.862;2022-10-16T13:28:33;1.85;;;1.10;;
10550;SDS011;5324;50.684;3.862;2022-10-16T13:31:01;2.17;;;1.15;;
10550;SDS011;5324;50.684;3.862;2022-10-16T13:33:37;1.35;;;0.95;;
10550;SDS011;5324;50.684;3.862;2022-10-16T13:36:04;1.15;;;1.05;;
10550;SDS011;5324;50.684;3.862;2022-10-16T13:38:31;1.15;;;1.05;;
10550;SDS011;5324;50.684;3.862;2022-10-16T13:41:05;2.00;;;1.13;;
10550;SDS011;5324;50.684;3.862;2022-10-16T13:43:35;1.45;;;1.00;;
10550;SDS011;5324;50.684;3.862;2022-10-16T13:46:06;1.73;;;1.00;;
10550;SDS011;5324;50.684;3.862;2022-10-16T13:48:32;1.15;;;1.00;;
10550;SDS011;5324;50.684;3.862;2022-10-16T13:51:01;1.60;;;1.10;;
10550;SDS011;5324;50.684;3.862;2022-10-16T13:53:29;1.67;;;1.20;;
10550;SDS011;5324;50.684;3.862;2022-10-16T13:55:56;1.67;;;1.20;;
10550;SDS011;5324;50.684;3.862;2022-10-16T13:58:22;0.98;;;0.90;;
10550;SDS011;5324;50.684;3.862;2022-10-16T14:00:55;1.13;;;0.98;;
10550;SDS011;5324;50.684;3.862;2022-10-16T14:03:21;1.02;;;0.80;;
10550;SDS011;5324;50.684;3.862;2022-10-16T14:05:59;1.00;;;0.90;;
10550;SDS011;5324;50.684;3.862;2022-10-16T14:08:42;0.98;;;0.90;;
10550;SDS011;5324;50.684;3.862;2022-10-16T14:11:08;1.00;;;0.70;;
10550;SDS011;5324;50.684;3.862;2022-10-16T14:13:38;1.38;;;1.00;;
10550;SDS011;5324;50.684;3.862;2022-10-16T14:16:06;1.15;;;1.05;;
10550;SDS011;5324;50.684;3.862;2022-10-16T14:18:33;3.35;;;1.05;;
10550;SDS011;5324;50.684;3.862;2022-10-16T14:21:03;2.15;;;1.17;;
10550;SDS011;5324;50.684;3.862;2022-10-16T14:23:31;2.75;;;1.10;;
10550;SDS011;5324;50.684;3.862;2022-10-16T14:28:38;0.82;;;0.82;;
10550;SDS011;5324;50.684;3.862;2022-10-16T14:33:50;1.10;;;1.05;;
10550;SDS011;5324;50.684;3.862;2022-10-16T14:36:16;0.95;;;0.70;;
10550;SDS011;5324;50.684;3.862;2022-10-16T14:38:59;1.00;;;0.90;;
10550;SDS011;5324;50.684;3.862;2022-10-16T14:41:27;1.85;;;1.17;;
10550;SDS011;5324;50.684;3.862;2022-10-16T14:43:54;1.52;;;1.00;;
10550;SDS011;5324;50.684;3.862;2022-10-16T14:46:22;1.35;;;1.00;;
10550;SDS011;5324;50.684;3.862;2022-10-16T14:48:52;1.48;;;0.80;;
10550;SDS011;5324;50.684;3.862;2022-10-16T14:51:20;1.38;;;0.90;;
10550;SDS011;5324;50.684;3.862;2022-10-16T14:53:47;0.80;;;0.80;;
10550;SDS011;5324;50.684;3.862;2022-10-16T14:56:17;0.90;;;0.80;;
10550;SDS011;5324;50.684;3.862;2022-10-16T14:58:44;1.75;;;1.00;;
10550;SDS011;5324;50.684;3.862;2022-10-16T15:01:10;1.08;;;0.90;;
10550;SDS011;5324;50.684;3.862;2022-10-16T15:03:36;1.08;;;1.00;;
10550;SDS011;5324;50.684;3.862;2022-10-16T15:06:02;1.15;;;0.90;;
10550;SDS011;5324;50.684;3.862;2022-10-16T15:08:28;1.10;;;1.00;;
10550;SDS011;5324;50.684;3.862;2022-10-16T15:10:54;0.98;;;0.90;;
10550;SDS011;5324;50.684;3.862;2022-10-16T15:13:20;0.70;;;0.70;;
10550;SDS011;5324;50.684;3.862;2022-10-16T15:15:47;1.08;;;0.85;;
10550;SDS011;5324;50.684;3.862;2022-10-16T15:18:16;0.82;;;0.82;;
10550;SDS011;5324;50.684;3.862;2022-10-16T15:20:47;1.27;;;0.77;;
10550;SDS011;5324;50.684;3.862;2022-10-16T15:23:17;0.60;;;0.60;;
10550;SDS011;5324;50.684;3.862;2022-10-16T15:25:50;0.80;;;0.80;;
10550;SDS011;5324;50.684;3.862;2022-10-16T15:28:17;0.77;;;0.77;;
10550;SDS011;5324;50.684;3.862;2022-10-16T15:30:43;0.63;;;0.63;;
10550;SDS011;5324;50.684;3.862;2022-10-16T15:33:14;0.70;;;0.70;;
10550;SDS011;5324;50.684;3.862;2022-10-16T15:35:40;1.05;;;0.90;;
10550;SDS011;5324;50.684;3.862;2022-10-16T15:38:08;0.80;;;0.80;;
10550;SDS011;5324;50.684;3.862;2022-10-16T15:40:35;0.90;;;0.80;;
10550;SDS011;5324;50.684;3.862;2022-10-16T15:43:01;0.75;;;0.70;;
10550;SDS011;5324;50.684;3.862;2022-10-16T15:45:27;0.70;;;0.70;;
10550;SDS011;5324;50.684;3.862;2022-10-16T15:47:53;0.70;;;0.63;;
10550;SDS011;5324;50.684;3.862;2022-10-16T15:50:19;0.63;;;0.60;;
10550;SDS011;5324;50.684;3.862;2022-10-16T15:52:45;0.82;;;0.82;;
10550;SDS011;5324;50.684;3.862;2022-10-16T15:55:12;0.70;;;0.63;;
10550;SDS011;5324;50.684;3.862;2022-10-16T15:57:38;0.80;;;0.80;;
10550;SDS011;5324;50.684;3.862;2022-10-16T16:00:10;0.70;;;0.70;;
10550;SDS011;5324;50.684;3.862;2022-10-16T16:02:36;0.70;;;0.70;;
10550;SDS011;5324;50.684;3.862;2022-10-16T16:05:03;0.70;;;0.70;;
10550;SDS011;5324;50.684;3.862;2022-10-16T16:07:32;0.50;;;0.50;;
10550;SDS011;5324;50.684;3.862;2022-10-16T16:09:58;0.98;;;0.90;;
10550;SDS011;5324;50.684;3.862;2022-10-16T16:12:24;1.23;;;0.70;;
10550;SDS011;5324;50.684;3.862;2022-10-16T16:14:50;0.80;;;0.80;;
10550;SDS011;5324;50.684;3.862;2022-10-16T16:17:16;0.65;;;0.65;;
10550;SDS011;5324;50.684;3.862;2022-10-16T16:19:43;1.58;;;0.80;;
10550;SDS011;5324;50.684;3.862;2022-10-16T16:22:09;0.88;;;0.88;;
10550;SDS011;5324;50.684;3.862;2022-10-16T16:24:35;2.03;;;1.00;;
10550;SDS011;5324;50.684;3.862;2022-10-16T16:27:01;0.57;;;0.57;;
10550;SDS011;5324;50.684;3.862;2022-10-16T16:29:27;0.95;;;0.95;;
10550;SDS011;5324;50.684;3.862;2022-10-16T16:31:53;0.80;;;0.80;;
10550;SDS011;5324;50.684;3.862;2022-10-16T16:34:23;0.98;;;0.80;;
10550;SDS011;5324;50.684;3.862;2022-10-16T16:36:49;0.75;;;0.75;;
10550;SDS011;5324;50.684;3.862;2022-10-16T16:39:16;1.02;;;1.02;;
10550;SDS011;5324;50.684;3.862;2022-10-16T16:41:42;1.27;;;1.10;;
10550;SDS011;5324;50.684;3.862;2022-10-16T16:44:08;1.73;;;1.48;;
10550;SDS011;5324;50.684;3.862;2022-10-16T16:46:36;1.77;;;1.67;;
10550;SDS011;5324;50.684;3.862;2022-10-16T16:49:02;2.00;;;1.80;;
10550;SDS011;5324;50.684;3.862;2022-10-16T16:51:28;2.10;;;1.90;;